createdAt,value
2022-12-25T00:02:18.852Z,30.90
2022-12-25T00:05:22.714Z,26.75
2022-12-25T00:08:29.164Z,30.23
2022-12-25T00:11:34.975Z,28.90
2022-12-25T00:14:38.425Z,30.65
2022-12-25T00:17:43.063Z,31.33
2022-12-25T00:20:46.388Z,33.60
2022-12-25T00:23:55.923Z,26.20
2022-12-25T00:27:01.565Z,31.58
2022-12-25T00:30:08.003Z,25.48
2022-12-25T00:33:11.360Z,27.23
2022-12-25T00:36:20.325Z,26.58
2022-12-25T00:39:23.712Z,26.90
2022-12-25T00:42:28.690Z,31.67
2022-12-25T00:45:32.269Z,26.12
2022-12-25T00:48:38.515Z,27.60
2022-12-25T00:51:43.164Z,29.37
2022-12-25T00:54:46.792Z,33.05
2022-12-25T00:57:51.351Z,25.00
2022-12-25T01:01:00.077Z,24.75
2022-12-25T01:04:03.864Z,26.45
2022-12-25T01:07:08.402Z,34.33
2022-12-25T01:10:23.931Z,30.47
2022-12-25T01:13:29.056Z,32.20
2022-12-25T01:16:33.064Z,34.30
2022-12-25T01:19:37.104Z,28.27
2022-12-25T01:22:40.323Z,31.15
2022-12-25T01:25:44.263Z,30.12
2022-12-25T01:28:51.869Z,27.27
2022-12-25T01:31:55.641Z,29.27
2022-12-25T01:35:00.502Z,26.55
2022-12-25T01:38:05.301Z,24.05
2022-12-25T01:41:08.728Z,26.87
2022-12-25T01:44:15.923Z,39.75
2022-12-25T01:47:19.219Z,43.87
2022-12-25T01:50:24.054Z,39.43
2022-12-25T01:53:27.724Z,43.75
2022-12-25T01:56:32.449Z,42.33
2022-12-25T01:59:36.037Z,36.22
2022-12-25T02:02:41.301Z,49.63
2022-12-25T02:05:46.524Z,51.95
2022-12-25T02:08:49.895Z,45.83
2022-12-25T02:12:00.118Z,36.43
2022-12-25T02:15:12.425Z,53.40
2022-12-25T02:18:26.825Z,46.63
2022-12-25T02:21:42.290Z,43.07
2022-12-25T02:25:09.338Z,40.25
2022-12-25T02:28:23.321Z,42.83
2022-12-25T02:31:49.091Z,48.58
2022-12-25T02:35:02.340Z,41.53
2022-12-25T02:38:16.303Z,40.40
2022-12-25T02:41:19.501Z,37.67
2022-12-25T02:44:44.581Z,41.73
2022-12-25T02:48:20.095Z,37.83
2022-12-25T02:51:46.652Z,28.55
2022-12-25T02:55:19.007Z,44.23
2022-12-25T02:58:43.459Z,32.97
2022-12-25T03:02:05.342Z,38.75
2022-12-25T03:05:32.188Z,33.90
2022-12-25T03:08:40.543Z,34.95
2022-12-25T03:11:47.712Z,39.13
2022-12-25T03:15:09.738Z,32.10
2022-12-25T03:18:18.405Z,34.83
2022-12-25T03:21:40.454Z,34.53
2022-12-25T03:25:03.863Z,30.92
2022-12-25T03:28:07.275Z,32.50
2022-12-25T03:31:19.230Z,39.67
2022-12-25T03:35:13.139Z,32.35
2022-12-25T03:39:03.370Z,31.70
2022-12-25T03:42:26.337Z,24.37
2022-12-25T03:46:13.059Z,32.05
2022-12-25T03:49:56.506Z,29.15
2022-12-25T03:53:22.288Z,27.52
2022-12-25T03:56:46.863Z,35.83
2022-12-25T04:00:09.293Z,33.58
2022-12-25T04:03:31.099Z,33.83
2022-12-25T04:06:55.164Z,33.40
2022-12-25T04:10:17.459Z,32.20
2022-12-25T04:13:39.773Z,29.27
2022-12-25T04:17:01.941Z,29.50
2022-12-25T04:20:27.267Z,39.38
2022-12-25T04:23:50.123Z,35.58
2022-12-25T04:27:12.502Z,31.50
2022-12-25T04:30:39.134Z,27.15
2022-12-25T04:34:01.338Z,36.35
2022-12-25T04:37:04.773Z,26.47
2022-12-25T04:40:09.068Z,29.45
2022-12-25T04:43:12.413Z,21.00
2022-12-25T04:46:17.138Z,26.63
2022-12-25T04:49:21.233Z,22.40
2022-12-25T04:52:24.822Z,21.70
2022-12-25T04:55:27.930Z,24.35
2022-12-25T04:58:32.558Z,25.92
2022-12-25T05:01:37.654Z,26.10
2022-12-25T05:04:43.642Z,30.95
2022-12-25T05:07:46.964Z,21.90
2022-12-25T05:10:51.767Z,22.87
2022-12-25T05:13:55.005Z,28.08
2022-12-25T05:16:59.226Z,30.40
2022-12-25T05:20:02.365Z,51.42
2022-12-25T05:23:05.880Z,44.63
2022-12-25T05:26:09.090Z,38.75
2022-12-25T05:29:14.348Z,36.42
2022-12-25T05:32:17.467Z,24.05
2022-12-25T05:35:21.064Z,23.23
2022-12-25T05:38:24.302Z,29.00
2022-12-25T05:41:33.767Z,36.15
2022-12-25T05:44:37.657Z,27.80
2022-12-25T05:47:43.431Z,22.40
2022-12-25T05:50:51.298Z,26.33
2022-12-25T05:53:54.827Z,33.10
2022-12-25T05:56:58.032Z,24.15
2022-12-25T06:00:01.925Z,29.65
2022-12-25T06:03:15.422Z,27.37
2022-12-25T06:06:19.721Z,23.83
2022-12-25T06:09:23.405Z,17.77
2022-12-25T06:12:26.826Z,22.55
2022-12-25T06:15:30.297Z,23.33
2022-12-25T06:18:42.565Z,26.73
2022-12-25T06:21:47.501Z,22.90
2022-12-25T06:24:53.452Z,29.10
2022-12-25T06:28:00.876Z,23.85
2022-12-25T06:31:14.214Z,29.90
2022-12-25T06:34:20.021Z,29.52
2022-12-25T06:37:23.743Z,33.75
2022-12-25T06:40:27.039Z,27.37
2022-12-25T06:43:30.473Z,27.30
2022-12-25T06:46:33.736Z,31.35
2022-12-25T06:49:37.333Z,30.67
2022-12-25T06:52:40.526Z,34.97
2022-12-25T06:55:43.990Z,32.05
2022-12-25T06:58:49.585Z,31.87
2022-12-25T07:01:57.515Z,37.33
2022-12-25T07:05:02.033Z,38.58
2022-12-25T07:08:05.692Z,34.20
2022-12-25T07:11:09.277Z,36.77
2022-12-25T07:14:24.508Z,34.90
2022-12-25T07:17:28.002Z,27.75
2022-12-25T07:20:31.719Z,44.23
2022-12-25T07:23:35.065Z,45.53
2022-12-25T07:26:39.296Z,49.90
2022-12-25T07:29:44.313Z,48.95
2022-12-25T07:32:52.198Z,47.60
2022-12-25T07:35:58.489Z,57.38
2022-12-25T07:39:02.041Z,45.20
2022-12-25T07:42:05.427Z,58.30
2022-12-25T07:45:09.397Z,52.35
2022-12-25T07:48:16.651Z,60.92
2022-12-25T07:51:21.844Z,70.23
2022-12-25T07:54:32.335Z,67.95
2022-12-25T07:57:36.583Z,79.50
2022-12-25T08:00:40.890Z,88.47
2022-12-25T08:03:44.921Z,91.53
2022-12-25T08:06:53.440Z,93.85
2022-12-25T08:10:00.675Z,95.15
2022-12-25T08:13:09.047Z,112.43
2022-12-25T08:16:16.176Z,130.80
2022-12-25T08:19:19.459Z,109.70
2022-12-25T08:22:22.854Z,126.97
2022-12-25T08:25:26.230Z,100.75
2022-12-25T08:28:31.555Z,92.37
2022-12-25T08:31:36.426Z,93.80
2022-12-25T08:34:43.220Z,65.70
2022-12-25T08:37:46.383Z,56.83
2022-12-25T08:40:50.550Z,48.40
2022-12-25T08:43:54.189Z,48.43
2022-12-25T08:47:19.748Z,52.42
2022-12-25T08:50:25.310Z,38.95
2022-12-25T08:53:30.400Z,40.90
2022-12-25T08:56:39.491Z,38.80
2022-12-25T08:59:43.129Z,48.78
2022-12-25T09:02:46.671Z,49.38
2022-12-25T09:05:50.764Z,38.53
2022-12-25T09:08:54.136Z,20.00
2022-12-25T09:11:57.693Z,20.08
2022-12-25T09:15:00.866Z,14.50
2022-12-25T09:18:04.414Z,18.87
2022-12-25T09:21:12.500Z,16.80
2022-12-25T09:24:18.349Z,16.23
2022-12-25T09:27:24.574Z,11.65
2022-12-25T09:30:30.588Z,10.07
2022-12-25T09:33:34.226Z,12.63
2022-12-25T09:36:42.474Z,12.70
2022-12-25T09:39:49.162Z,11.17
2022-12-25T09:42:55.138Z,11.95
2022-12-25T09:46:01.243Z,12.57
2022-12-25T09:49:23.183Z,11.15
2022-12-25T09:52:36.888Z,11.90
2022-12-25T09:55:49.119Z,12.43
2022-12-25T09:58:53.021Z,13.02
2022-12-25T10:02:18.584Z,14.13
2022-12-25T10:05:28.286Z,12.07
2022-12-25T10:09:22.070Z,13.90
2022-12-25T10:12:39.287Z,13.47
2022-12-25T10:16:04.061Z,16.40
2022-12-25T10:19:37.933Z,16.02
2022-12-25T10:22:53.367Z,13.70
2022-12-25T10:25:57.037Z,14.80
2022-12-25T10:29:16.271Z,18.57
2022-12-25T10:32:22.657Z,15.75
2022-12-25T10:35:28.707Z,15.15
2022-12-25T10:38:32.412Z,16.08
2022-12-25T10:41:53.681Z,20.50
2022-12-25T10:45:05.573Z,21.35
2022-12-25T10:48:14.002Z,22.40
2022-12-25T10:51:32.433Z,23.17
2022-12-25T10:54:38.322Z,22.58
2022-12-25T10:57:46.409Z,24.20
2022-12-25T11:00:59.362Z,21.30
2022-12-25T11:04:03.184Z,18.87
2022-12-25T11:07:22.068Z,15.45
2022-12-25T11:10:36.962Z,17.42
2022-12-25T11:13:48.951Z,14.70
2022-12-25T11:16:52.719Z,17.23
2022-12-25T11:20:00.668Z,15.40
2022-12-25T11:23:10.852Z,19.45
2022-12-25T11:26:14.966Z,13.30
2022-12-25T11:29:26.697Z,14.47
2022-12-25T11:32:41.589Z,13.75
2022-12-25T11:35:53.138Z,20.35
2022-12-25T11:38:59.504Z,16.02
2022-12-25T11:42:32.422Z,17.95
2022-12-25T11:45:49.157Z,18.30
2022-12-25T11:49:00.880Z,17.90
2022-12-25T11:52:06.779Z,15.95
2022-12-25T11:55:31.407Z,14.95
2022-12-25T11:58:52.426Z,15.82
2022-12-25T12:02:11.779Z,26.70
2022-12-25T12:05:23.669Z,18.35
2022-12-25T12:08:27.156Z,17.62
2022-12-25T12:11:42.944Z,16.25
2022-12-25T12:14:54.120Z,17.42
2022-12-25T12:18:20.154Z,19.93
2022-12-25T12:21:26.363Z,13.15
2022-12-25T12:24:35.941Z,12.52
2022-12-25T12:27:44.155Z,11.60
2022-12-25T12:31:02.354Z,16.27
2022-12-25T12:34:29.223Z,11.80
2022-12-25T12:37:38.620Z,13.45
2022-12-25T12:41:03.690Z,12.07
2022-12-25T12:44:07.932Z,12.80
2022-12-25T12:47:34.268Z,10.65
2022-12-25T12:50:41.082Z,8.03
2022-12-25T12:53:44.423Z,10.88
2022-12-25T12:57:03.887Z,43.78
2022-12-25T13:00:10.764Z,14.27
2022-12-25T13:03:29.121Z,13.18
2022-12-25T13:06:55.071Z,37.50
2022-12-25T13:09:59.618Z,15.15
2022-12-25T13:13:26.788Z,13.20
2022-12-25T13:16:42.755Z,14.68
2022-12-25T13:19:57.740Z,21.10
2022-12-25T13:23:01.355Z,12.53
2022-12-25T13:26:17.670Z,12.37
2022-12-25T13:29:29.121Z,11.38
2022-12-25T13:32:35.372Z,15.02
2022-12-25T13:35:43.793Z,17.15
2022-12-25T13:38:50.825Z,11.10
2022-12-25T13:42:10.101Z,12.50
2022-12-25T13:45:14.290Z,13.82
2022-12-25T13:48:18.008Z,14.30
2022-12-25T13:51:21.131Z,22.73
2022-12-25T13:54:27.544Z,20.00
2022-12-25T13:57:34.845Z,15.65
2022-12-25T14:00:47.713Z,18.80
2022-12-25T14:03:51.526Z,20.60
2022-12-25T14:07:10.989Z,19.70
2022-12-25T14:10:17.729Z,16.03
2022-12-25T14:13:23.740Z,24.15
2022-12-25T14:16:29.180Z,24.15
2022-12-25T14:19:34.661Z,24.20
2022-12-25T14:22:53.532Z,24.83
2022-12-25T14:25:59.235Z,30.10
2022-12-25T14:29:05.760Z,27.67
2022-12-25T14:32:17.035Z,30.35
2022-12-25T14:35:23.848Z,37.08
2022-12-25T14:38:32.587Z,33.92
2022-12-25T14:41:38.682Z,33.13
2022-12-25T14:44:42.020Z,31.83
2022-12-25T14:47:54.574Z,34.47
2022-12-25T14:51:09.199Z,28.00
2022-12-25T14:54:23.554Z,24.90
2022-12-25T14:57:30.117Z,24.35
2022-12-25T15:00:40.893Z,26.95
2022-12-25T15:03:49.270Z,33.33
2022-12-25T15:06:55.208Z,27.50
2022-12-25T15:10:27.125Z,35.25
2022-12-25T15:13:23.045Z,35.53
2022-12-25T15:16:49.582Z,31.20
2022-12-25T15:19:57.956Z,39.05
2022-12-25T15:23:19.039Z,31.48
2022-12-25T15:26:28.184Z,51.53
2022-12-25T15:30:08.009Z,58.23
2022-12-25T15:32:55.613Z,57.10
2022-12-25T15:36:02.085Z,49.47
2022-12-25T15:39:05.760Z,44.45
2022-12-25T15:42:14.652Z,41.63
2022-12-25T15:45:24.559Z,44.45
2022-12-25T15:48:27.791Z,38.03
2022-12-25T15:51:31.833Z,37.38
2022-12-25T15:54:35.299Z,36.13
2022-12-25T15:57:42.622Z,34.70
2022-12-25T16:00:45.885Z,32.22
2022-12-25T16:03:52.863Z,34.17
2022-12-25T16:06:56.625Z,27.23
2022-12-25T16:10:07.085Z,33.42
2022-12-25T16:13:10.250Z,32.65
2022-12-25T16:16:14.128Z,25.08
2022-12-25T16:19:20.712Z,25.67
2022-12-25T16:22:27.079Z,23.77
2022-12-25T16:25:30.316Z,22.62
2022-12-25T16:28:37.727Z,25.35
2022-12-25T16:31:41.542Z,22.63
2022-12-25T16:34:46.324Z,25.37
2022-12-25T16:37:52.568Z,25.88
2022-12-25T16:40:58.485Z,23.42
2022-12-25T16:44:10.314Z,25.08
2022-12-25T16:47:13.846Z,26.83
2022-12-25T16:50:17.312Z,31.08
2022-12-25T16:53:24.042Z,32.33
2022-12-25T16:56:28.651Z,30.85
2022-12-25T16:59:33.115Z,36.50
2022-12-25T17:02:45.433Z,31.70
2022-12-25T17:05:49.148Z,34.60
2022-12-25T17:08:57.453Z,28.30
2022-12-25T17:12:01.427Z,41.87
2022-12-25T17:15:07.996Z,40.88
2022-12-25T17:18:14.230Z,41.72
2022-12-25T17:21:17.406Z,43.40
2022-12-25T17:24:21.988Z,51.87
2022-12-25T17:27:25.163Z,53.90
2022-12-25T17:30:32.099Z,66.85
2022-12-25T17:33:36.679Z,55.47
2022-12-25T17:36:40.402Z,48.03
2022-12-25T17:39:49.106Z,41.33
2022-12-25T17:42:53.030Z,39.85
2022-12-25T17:45:56.297Z,47.83
2022-12-25T17:49:01.444Z,108.03
2022-12-25T17:52:04.905Z,77.03
2022-12-25T17:55:09.235Z,61.53
2022-12-25T17:58:12.482Z,56.60
2022-12-25T18:01:17.021Z,49.53
2022-12-25T18:04:26.223Z,51.35
2022-12-25T18:07:29.485Z,51.00
2022-12-25T18:10:37.746Z,59.67
2022-12-25T18:13:48.468Z,55.60
2022-12-25T18:16:52.540Z,48.05
2022-12-25T18:19:58.062Z,48.03
2022-12-25T18:23:04.068Z,43.83
2022-12-25T18:26:11.959Z,48.73
2022-12-25T18:29:15.910Z,42.50
2022-12-25T18:32:23.395Z,38.65
2022-12-25T18:35:32.132Z,41.63
2022-12-25T18:38:35.764Z,41.37
2022-12-25T18:41:59.460Z,43.70
2022-12-25T18:45:08.513Z,45.85
2022-12-25T18:48:12.433Z,46.80
2022-12-25T18:51:16.067Z,43.93
2022-12-25T18:54:20.148Z,47.85
2022-12-25T18:57:23.571Z,43.25
2022-12-25T19:00:28.217Z,44.08
2022-12-25T19:03:31.837Z,36.00
2022-12-25T19:06:35.424Z,41.92
2022-12-25T19:09:38.924Z,37.55
2022-12-25T19:12:43.118Z,38.80
2022-12-25T19:15:46.444Z,40.90
2022-12-25T19:18:50.169Z,41.33
2022-12-25T19:21:55.798Z,40.78
2022-12-25T19:24:59.608Z,34.30
2022-12-25T19:28:03.330Z,36.97
2022-12-25T19:31:09.014Z,40.42
2022-12-25T19:34:14.761Z,38.72
2022-12-25T19:37:20.395Z,37.50
2022-12-25T19:40:29.956Z,35.85
2022-12-25T19:43:39.085Z,37.92
2022-12-25T19:46:42.920Z,37.40
2022-12-25T19:49:52.576Z,41.75
2022-12-25T19:52:56.865Z,37.38
2022-12-25T19:56:03.298Z,52.97
2022-12-25T19:59:10.889Z,32.67
2022-12-25T20:02:14.807Z,34.17
2022-12-25T20:05:21.063Z,31.95
2022-12-25T20:08:24.975Z,28.20
2022-12-25T20:11:32.261Z,29.83
2022-12-25T20:14:36.750Z,28.35
2022-12-25T20:17:51.235Z,25.83
2022-12-25T20:21:15.571Z,27.83
2022-12-25T20:24:19.168Z,34.10
2022-12-25T20:27:26.278Z,23.38
2022-12-25T20:30:30.592Z,28.10
2022-12-25T20:33:36.349Z,28.27
2022-12-25T20:36:42.096Z,25.47
2022-12-25T20:39:45.534Z,32.33
2022-12-25T20:42:49.450Z,34.92
2022-12-25T20:45:53.586Z,32.15
2022-12-25T20:48:58.433Z,32.90
2022-12-25T20:52:05.438Z,31.60
2022-12-25T20:55:10.733Z,27.60
2022-12-25T20:58:15.568Z,27.60
2022-12-25T21:01:19.351Z,30.93
2022-12-25T21:04:22.968Z,25.70
2022-12-25T21:07:26.570Z,28.45
2022-12-25T21:10:29.873Z,32.17
2022-12-25T21:13:35.612Z,26.40
2022-12-25T21:16:40.219Z,29.20
2022-12-25T21:19:43.893Z,27.25
2022-12-25T21:22:49.168Z,29.63
2022-12-25T21:25:53.746Z,30.03
2022-12-25T21:29:00.499Z,29.17
2022-12-25T21:32:22.758Z,28.67
2022-12-25T21:35:25.960Z,29.45
2022-12-25T21:38:29.677Z,27.27
2022-12-25T21:41:36.849Z,31.15
2022-12-25T21:44:40.329Z,30.62
2022-12-25T21:47:59.940Z,31.62
2022-12-25T21:51:26.724Z,31.90
2022-12-25T21:54:29.916Z,30.33
2022-12-25T21:57:33.876Z,34.08
2022-12-25T22:00:39.924Z,31.97
2022-12-25T22:03:44.731Z,31.85
2022-12-25T22:07:07.106Z,34.17
2022-12-25T22:10:13.747Z,33.95
2022-12-25T22:13:35.794Z,38.80
2022-12-25T22:16:57.814Z,34.33
2022-12-25T22:20:01.087Z,39.78
2022-12-25T22:23:09.193Z,37.20
2022-12-25T22:26:20.430Z,34.05
2022-12-25T22:29:24.480Z,34.38
2022-12-25T22:32:28.557Z,36.38
2022-12-25T22:35:34.266Z,41.23
2022-12-25T22:38:37.603Z,40.78
2022-12-25T22:41:41.460Z,40.40
2022-12-25T22:44:45.715Z,42.70
2022-12-25T22:47:49.607Z,38.13
2022-12-25T22:50:54.767Z,36.80
2022-12-25T22:54:03.543Z,33.83
2022-12-25T22:57:07.314Z,36.67
2022-12-25T23:00:13.818Z,37.25
2022-12-25T23:03:17.169Z,39.75
2022-12-25T23:06:21.500Z,38.88
2022-12-25T23:09:28.018Z,42.43
2022-12-25T23:12:53.579Z,39.08
2022-12-25T23:15:57.180Z,40.12
2022-12-25T23:19:20.980Z,37.55
2022-12-25T23:22:43.080Z,35.85
2022-12-25T23:26:07.265Z,39.45
2022-12-25T23:29:29.250Z,41.88
2022-12-25T23:32:33.420Z,42.40
2022-12-25T23:35:44.157Z,37.63
2022-12-25T23:38:47.737Z,34.55
2022-12-25T23:41:50.961Z,38.03
2022-12-25T23:44:57.872Z,43.90
2022-12-25T23:48:01.282Z,37.72
2022-12-25T23:51:08.212Z,43.20
2022-12-25T23:54:17.208Z,36.33
2022-12-25T23:57:23.090Z,40.65
